sensor_id;sensor_type;location;lat;lon;timestamp;P1;durP1;ratioP1;P2;durP2;ratioP2
37943;SDS011;23767;42.024;23.086;2023-02-28T00:00:16;8.13;;;2.75;;
37943;SDS011;23767;42.024;23.086;2023-02-28T00:02:43;8.80;;;2.97;;
37943;SDS011;23767;42.024;23.086;2023-02-28T00:05:11;10.68;;;3.28;;
37943;SDS011;23767;42.024;23.086;2023-02-28T00:07:37;11.52;;;3.50;;
37943;SDS011;23767;42.024;23.086;2023-02-28T00:10:06;9.25;;;3.58;;
37943;SDS011;23767;42.024;23.086;2023-02-28T00:12:33;8.65;;;3.25;;
37943;SDS011;23767;42.024;23.086;2023-02-28T00:14:59;6.70;;;3.15;;
37943;SDS011;23767;42.024;23.086;2023-02-28T00:17:25;8.75;;;3.50;;
37943;SDS011;23767;42.024;23.086;2023-02-28T00:19:51;14.45;;;4.57;;
37943;SDS011;23767;42.024;23.086;2023-02-28T00:22:18;11.98;;;5.40;;
37943;SDS011;23767;42.024;23.086;2023-02-28T00:24:44;10.10;;;6.03;;
37943;SDS011;23767;42.024;23.086;2023-02-28T00:27:10;12.32;;;5.65;;
37943;SDS011;23767;42.024;23.086;2023-02-28T00:29:37;12.52;;;5.55;;
37943;SDS011;23767;42.024;23.086;2023-02-28T00:32:03;12.38;;;6.22;;
37943;SDS011;23767;42.024;23.086;2023-02-28T00:34:30;10.88;;;6.20;;
37943;SDS011;23767;42.024;23.086;2023-02-28T00:36:56;12.13;;;6.88;;
37943;SDS011;23767;42.024;23.086;2023-02-28T00:39:22;12.48;;;6.13;;
37943;SDS011;23767;42.024;23.086;2023-02-28T00:41:48;10.13;;;5.55;;
37943;SDS011;23767;42.024;23.086;2023-02-28T00:44:14;11.85;;;6.00;;
37943;SDS011;23767;42.024;23.086;2023-02-28T00:46:40;11.18;;;5.05;;
37943;SDS011;23767;42.024;23.086;2023-02-28T00:49:06;11.88;;;5.03;;
37943;SDS011;23767;42.024;23.086;2023-02-28T00:51:32;10.38;;;5.47;;
37943;SDS011;23767;42.024;23.086;2023-02-28T00:53:58;8.73;;;4.80;;
37943;SDS011;23767;42.024;23.086;2023-02-28T00:56:24;12.05;;;5.82;;
37943;SDS011;23767;42.024;23.086;2023-02-28T00:58:50;7.07;;;4.63;;
37943;SDS011;23767;42.024;23.086;2023-02-28T01:01:16;9.18;;;4.75;;
37943;SDS011;23767;42.024;23.086;2023-02-28T01:03:42;11.73;;;5.57;;
37943;SDS011;23767;42.024;23.086;2023-02-28T01:06:08;9.48;;;5.15;;
37943;SDS011;23767;42.024;23.086;2023-02-28T01:08:34;11.05;;;5.43;;
37943;SDS011;23767;42.024;23.086;2023-02-28T01:11:06;11.98;;;4.78;;
37943;SDS011;23767;42.024;23.086;2023-02-28T01:13:32;11.20;;;5.03;;
37943;SDS011;23767;42.024;23.086;2023-02-28T01:15:58;10.40;;;5.25;;
37943;SDS011;23767;42.024;23.086;2023-02-28T01:18:24;12.73;;;4.90;;
37943;SDS011;23767;42.024;23.086;2023-02-28T01:20:50;8.75;;;4.80;;
37943;SDS011;23767;42.024;23.086;2023-02-28T01:23:18;11.23;;;4.93;;
37943;SDS011;23767;42.024;23.086;2023-02-28T01:25:45;9.73;;;4.85;;
37943;SDS011;23767;42.024;23.086;2023-02-28T01:28:10;11.57;;;5.03;;
37943;SDS011;23767;42.024;23.086;2023-02-28T01:30:36;12.10;;;4.95;;
37943;SDS011;23767;42.024;23.086;2023-02-28T01:33:03;11.15;;;4.95;;
37943;SDS011;23767;42.024;23.086;2023-02-28T01:35:31;11.35;;;5.30;;
37943;SDS011;23767;42.024;23.086;2023-02-28T01:37:57;9.88;;;3.30;;
37943;SDS011;23767;42.024;23.086;2023-02-28T01:40:23;8.75;;;3.53;;
37943;SDS011;23767;42.024;23.086;2023-02-28T01:42:49;11.60;;;4.90;;
37943;SDS011;23767;42.024;23.086;2023-02-28T01:48:04;9.10;;;3.63;;
37943;SDS011;23767;42.024;23.086;2023-02-28T01:50:33;9.38;;;3.40;;
37943;SDS011;23767;42.024;23.086;2023-02-28T01:53:00;9.48;;;3.63;;
37943;SDS011;23767;42.024;23.086;2023-02-28T01:55:27;11.98;;;5.18;;
37943;SDS011;23767;42.024;23.086;2023-02-28T01:57:55;8.98;;;5.00;;
37943;SDS011;23767;42.024;23.086;2023-02-28T02:00:23;10.73;;;5.80;;
37943;SDS011;23767;42.024;23.086;2023-02-28T02:02:50;10.07;;;4.75;;
37943;SDS011;23767;42.024;23.086;2023-02-28T02:05:22;10.93;;;4.90;;
37943;SDS011;23767;42.024;23.086;2023-02-28T02:07:55;7.82;;;4.43;;
37943;SDS011;23767;42.024;23.086;2023-02-28T02:15:20;11.13;;;5.05;;
37943;SDS011;23767;42.024;23.086;2023-02-28T02:17:49;9.80;;;5.23;;
37943;SDS011;23767;42.024;23.086;2023-02-28T02:20:31;13.00;;;5.40;;
37943;SDS011;23767;42.024;23.086;2023-02-28T02:36:42;10.35;;;6.18;;
37943;SDS011;23767;42.024;23.086;2023-02-28T02:41:59;9.88;;;5.75;;
37943;SDS011;23767;42.024;23.086;2023-02-28T02:44:29;10.70;;;5.07;;
37943;SDS011;23767;42.024;23.086;2023-02-28T02:47:02;10.60;;;5.22;;
37943;SDS011;23767;42.024;23.086;2023-02-28T02:49:30;9.50;;;4.53;;
37943;SDS011;23767;42.024;23.086;2023-02-28T02:51:57;10.15;;;4.90;;
37943;SDS011;23767;42.024;23.086;2023-02-28T02:54:27;11.73;;;4.75;;
37943;SDS011;23767;42.024;23.086;2023-02-28T02:56:55;7.15;;;4.03;;
37943;SDS011;23767;42.024;23.086;2023-02-28T02:59:22;13.60;;;4.97;;
37943;SDS011;23767;42.024;23.086;2023-02-28T03:01:50;8.95;;;4.03;;
37943;SDS011;23767;42.024;23.086;2023-02-28T03:04:18;9.73;;;4.03;;
37943;SDS011;23767;42.024;23.086;2023-02-28T03:06:45;10.18;;;4.43;;
37943;SDS011;23767;42.024;23.086;2023-02-28T03:09:11;8.65;;;3.60;;
37943;SDS011;23767;42.024;23.086;2023-02-28T03:11:37;7.82;;;3.42;;
37943;SDS011;23767;42.024;23.086;2023-02-28T03:24:30;10.75;;;3.45;;
37943;SDS011;23767;42.024;23.086;2023-02-28T03:27:03;11.68;;;3.10;;
37943;SDS011;23767;42.024;23.086;2023-02-28T03:32:00;8.20;;;2.95;;
37943;SDS011;23767;42.024;23.086;2023-02-28T03:34:36;8.70;;;2.60;;
37943;SDS011;23767;42.024;23.086;2023-02-28T03:37:05;11.52;;;3.20;;
37943;SDS011;23767;42.024;23.086;2023-02-28T03:42:06;15.40;;;9.00;;
37943;SDS011;23767;42.024;23.086;2023-02-28T03:44:38;10.82;;;5.85;;
37943;SDS011;23767;42.024;23.086;2023-02-28T03:47:18;10.07;;;6.88;;
37943;SDS011;23767;42.024;23.086;2023-02-28T03:49:46;11.82;;;7.97;;
37943;SDS011;23767;42.024;23.086;2023-02-28T03:52:14;17.08;;;9.25;;
37943;SDS011;23767;42.024;23.086;2023-02-28T03:54:59;13.35;;;9.25;;
37943;SDS011;23767;42.024;23.086;2023-02-28T03:57:39;16.80;;;9.75;;
37943;SDS011;23767;42.024;23.086;2023-02-28T04:02:33;14.73;;;9.25;;
37943;SDS011;23767;42.024;23.086;2023-02-28T04:04:59;17.67;;;9.75;;
37943;SDS011;23767;42.024;23.086;2023-02-28T04:07:28;14.85;;;10.35;;
37943;SDS011;23767;42.024;23.086;2023-02-28T04:09:55;15.18;;;9.98;;
37943;SDS011;23767;42.024;23.086;2023-02-28T04:12:21;16.55;;;10.20;;
37943;SDS011;23767;42.024;23.086;2023-02-28T04:14:48;17.35;;;10.52;;
37943;SDS011;23767;42.024;23.086;2023-02-28T04:17:14;15.27;;;10.82;;
37943;SDS011;23767;42.024;23.086;2023-02-28T04:19:40;18.45;;;10.70;;
37943;SDS011;23767;42.024;23.086;2023-02-28T04:22:07;16.17;;;10.95;;
37943;SDS011;23767;42.024;23.086;2023-02-28T04:24:33;15.30;;;10.23;;
37943;SDS011;23767;42.024;23.086;2023-02-28T04:26:59;14.57;;;10.18;;
37943;SDS011;23767;42.024;23.086;2023-02-28T04:29:30;20.60;;;11.27;;
37943;SDS011;23767;42.024;23.086;2023-02-28T04:31:59;16.63;;;11.27;;
37943;SDS011;23767;42.024;23.086;2023-02-28T04:34:26;16.92;;;10.48;;
37943;SDS011;23767;42.024;23.086;2023-02-28T04:36:53;18.02;;;10.88;;
37943;SDS011;23767;42.024;23.086;2023-02-28T04:39:20;14.75;;;10.20;;
37943;SDS011;23767;42.024;23.086;2023-02-28T04:41:46;13.40;;;8.25;;
37943;SDS011;23767;42.024;23.086;2023-02-28T04:44:13;14.65;;;8.95;;
37943;SDS011;23767;42.024;23.086;2023-02-28T04:46:39;17.05;;;10.90;;
37943;SDS011;23767;42.024;23.086;2023-02-28T04:49:05;17.67;;;10.38;;
37943;SDS011;23767;42.024;23.086;2023-02-28T04:51:31;19.13;;;11.13;;
37943;SDS011;23767;42.024;23.086;2023-02-28T04:53:57;18.42;;;12.48;;
37943;SDS011;23767;42.024;23.086;2023-02-28T04:56:23;19.75;;;14.63;;
37943;SDS011;23767;42.024;23.086;2023-02-28T04:58:50;19.73;;;13.48;;
37943;SDS011;23767;42.024;23.086;2023-02-28T05:01:25;24.88;;;13.02;;
37943;SDS011;23767;42.024;23.086;2023-02-28T05:03:52;22.40;;;15.32;;
37943;SDS011;23767;42.024;23.086;2023-02-28T05:06:18;22.77;;;15.38;;
37943;SDS011;23767;42.024;23.086;2023-02-28T05:08:45;21.17;;;13.90;;
37943;SDS011;23767;42.024;23.086;2023-02-28T05:11:15;20.00;;;12.82;;
37943;SDS011;23767;42.024;23.086;2023-02-28T05:13:42;17.92;;;12.02;;
37943;SDS011;23767;42.024;23.086;2023-02-28T05:16:08;15.23;;;10.35;;
37943;SDS011;23767;42.024;23.086;2023-02-28T05:18:35;16.35;;;9.13;;
37943;SDS011;23767;42.024;23.086;2023-02-28T05:21:01;19.27;;;12.05;;
37943;SDS011;23767;42.024;23.086;2023-02-28T05:23:27;17.35;;;10.50;;
37943;SDS011;23767;42.024;23.086;2023-02-28T05:25:53;17.77;;;11.57;;
37943;SDS011;23767;42.024;23.086;2023-02-28T05:28:19;22.88;;;12.32;;
37943;SDS011;23767;42.024;23.086;2023-02-28T05:30:46;17.25;;;9.38;;
37943;SDS011;23767;42.024;23.086;2023-02-28T05:33:12;14.60;;;8.85;;
37943;SDS011;23767;42.024;23.086;2023-02-28T05:35:41;18.73;;;9.77;;
37943;SDS011;23767;42.024;23.086;2023-02-28T05:38:08;16.00;;;8.13;;
37943;SDS011;23767;42.024;23.086;2023-02-28T05:40:34;15.32;;;8.13;;
37943;SDS011;23767;42.024;23.086;2023-02-28T05:43:00;14.13;;;7.32;;
37943;SDS011;23767;42.024;23.086;2023-02-28T05:45:26;14.60;;;7.90;;
37943;SDS011;23767;42.024;23.086;2023-02-28T05:47:55;15.43;;;8.25;;
37943;SDS011;23767;42.024;23.086;2023-02-28T05:50:21;16.80;;;7.80;;
37943;SDS011;23767;42.024;23.086;2023-02-28T05:52:51;12.82;;;6.57;;
37943;SDS011;23767;42.024;23.086;2023-02-28T05:55:17;14.75;;;6.95;;
37943;SDS011;23767;42.024;23.086;2023-02-28T05:57:43;16.88;;;7.13;;
37943;SDS011;23767;42.024;23.086;2023-02-28T06:00:10;13.60;;;7.30;;
37943;SDS011;23767;42.024;23.086;2023-02-28T06:02:36;16.17;;;7.10;;
37943;SDS011;23767;42.024;23.086;2023-02-28T06:05:02;12.20;;;6.43;;
37943;SDS011;23767;42.024;23.086;2023-02-28T06:07:28;15.38;;;6.72;;
37943;SDS011;23767;42.024;23.086;2023-02-28T06:09:54;15.68;;;6.07;;
37943;SDS011;23767;42.024;23.086;2023-02-28T06:12:20;12.60;;;6.07;;
37943;SDS011;23767;42.024;23.086;2023-02-28T06:14:46;14.02;;;6.03;;
37943;SDS011;23767;42.024;23.086;2023-02-28T06:17:12;13.65;;;6.07;;
37943;SDS011;23767;42.024;23.086;2023-02-28T06:19:38;15.63;;;6.57;;
37943;SDS011;23767;42.024;23.086;2023-02-28T06:22:06;12.95;;;6.95;;
37943;SDS011;23767;42.024;23.086;2023-02-28T06:24:32;13.25;;;7.32;;
37943;SDS011;23767;42.024;23.086;2023-02-28T06:26:58;12.20;;;6.43;;
37943;SDS011;23767;42.024;23.086;2023-02-28T06:29:30;16.27;;;6.60;;
37943;SDS011;23767;42.024;23.086;2023-02-28T06:31:56;14.70;;;6.45;;
37943;SDS011;23767;42.024;23.086;2023-02-28T06:34:22;12.38;;;6.30;;
37943;SDS011;23767;42.024;23.086;2023-02-28T06:36:49;13.27;;;6.25;;
37943;SDS011;23767;42.024;23.086;2023-02-28T06:39:16;15.40;;;6.75;;
37943;SDS011;23767;42.024;23.086;2023-02-28T06:41:42;15.25;;;7.07;;
37943;SDS011;23767;42.024;23.086;2023-02-28T06:44:14;16.08;;;6.43;;
37943;SDS011;23767;42.024;23.086;2023-02-28T06:46:41;14.05;;;6.68;;
37943;SDS011;23767;42.024;23.086;2023-02-28T06:49:07;15.30;;;8.30;;
37943;SDS011;23767;42.024;23.086;2023-02-28T06:51:36;28.98;;;17.00;;
37943;SDS011;23767;42.024;23.086;2023-02-28T06:54:03;15.77;;;7.90;;
37943;SDS011;23767;42.024;23.086;2023-02-28T07:24:08;23.25;;;13.80;;
37943;SDS011;23767;42.024;23.086;2023-02-28T07:26:34;28.98;;;16.42;;
37943;SDS011;23767;42.024;23.086;2023-02-28T07:29:00;30.52;;;17.08;;
37943;SDS011;23767;42.024;23.086;2023-02-28T07:31:27;39.05;;;19.27;;
37943;SDS011;23767;42.024;23.086;2023-02-28T07:33:53;35.05;;;18.77;;
37943;SDS011;23767;42.024;23.086;2023-02-28T07:36:19;37.58;;;19.65;;
37943;SDS011;23767;42.024;23.086;2023-02-28T07:38:45;33.58;;;18.10;;
37943;SDS011;23767;42.024;23.086;2023-02-28T07:41:13;28.63;;;15.95;;
37943;SDS011;23767;42.024;23.086;2023-02-28T07:43:39;29.92;;;13.70;;
37943;SDS011;23767;42.024;23.086;2023-02-28T07:46:08;33.47;;;15.75;;
37943;SDS011;23767;42.024;23.086;2023-02-28T07:48:35;28.88;;;14.70;;
37943;SDS011;23767;42.024;23.086;2023-02-28T07:51:01;28.80;;;14.60;;
37943;SDS011;23767;42.024;23.086;2023-02-28T07:53:27;28.05;;;15.35;;
37943;SDS011;23767;42.024;23.086;2023-02-28T07:55:54;22.98;;;14.02;;
37943;SDS011;23767;42.024;23.086;2023-02-28T07:58:21;27.08;;;16.02;;
37943;SDS011;23767;42.024;23.086;2023-02-28T08:00:47;28.63;;;16.83;;
37943;SDS011;23767;42.024;23.086;2023-02-28T08:03:13;24.90;;;14.38;;
37943;SDS011;23767;42.024;23.086;2023-02-28T08:05:39;27.13;;;14.15;;
37943;SDS011;23767;42.024;23.086;2023-02-28T08:08:05;25.63;;;15.20;;
37943;SDS011;23767;42.024;23.086;2023-02-28T08:10:32;31.88;;;16.25;;
37943;SDS011;23767;42.024;23.086;2023-02-28T08:12:58;27.98;;;16.23;;
37943;SDS011;23767;42.024;23.086;2023-02-28T08:15:24;32.78;;;21.25;;
37943;SDS011;23767;42.024;23.086;2023-02-28T08:17:50;40.15;;;27.30;;
37943;SDS011;23767;42.024;23.086;2023-02-28T08:20:16;36.25;;;20.98;;
37943;SDS011;23767;42.024;23.086;2023-02-28T08:22:42;31.17;;;22.35;;
37943;SDS011;23767;42.024;23.086;2023-02-28T08:25:08;33.95;;;22.67;;
37943;SDS011;23767;42.024;23.086;2023-02-28T08:27:35;36.97;;;21.63;;
37943;SDS011;23767;42.024;23.086;2023-02-28T08:30:01;35.80;;;19.80;;
37943;SDS011;23767;42.024;23.086;2023-02-28T08:32:28;23.85;;;17.23;;
37943;SDS011;23767;42.024;23.086;2023-02-28T08:34:54;22.80;;;12.95;;
37943;SDS011;23767;42.024;23.086;2023-02-28T08:37:20;18.38;;;10.77;;
37943;SDS011;23767;42.024;23.086;2023-02-28T08:39:46;23.17;;;14.55;;
37943;SDS011;23767;42.024;23.086;2023-02-28T08:42:12;24.23;;;14.70;;
37943;SDS011;23767;42.024;23.086;2023-02-28T08:44:38;23.40;;;14.55;;
37943;SDS011;23767;42.024;23.086;2023-02-28T08:47:05;32.28;;;15.18;;
37943;SDS011;23767;42.024;23.086;2023-02-28T08:49:31;25.65;;;16.67;;
37943;SDS011;23767;42.024;23.086;2023-02-28T08:51:57;23.23;;;15.13;;
37943;SDS011;23767;42.024;23.086;2023-02-28T08:54:23;32.08;;;17.02;;
37943;SDS011;23767;42.024;23.086;2023-02-28T08:56:49;31.77;;;16.35;;
37943;SDS011;23767;42.024;23.086;2023-02-28T08:59:15;23.40;;;14.70;;
37943;SDS011;23767;42.024;23.086;2023-02-28T09:01:42;26.75;;;16.30;;
37943;SDS011;23767;42.024;23.086;2023-02-28T09:04:08;30.10;;;17.65;;
37943;SDS011;23767;42.024;23.086;2023-02-28T09:06:35;35.92;;;25.65;;
37943;SDS011;23767;42.024;23.086;2023-02-28T09:09:02;35.33;;;21.95;;
37943;SDS011;23767;42.024;23.086;2023-02-28T09:11:30;20.20;;;13.63;;
37943;SDS011;23767;42.024;23.086;2023-02-28T09:13:57;20.33;;;13.07;;
37943;SDS011;23767;42.024;23.086;2023-02-28T09:16:25;21.80;;;13.50;;
37943;SDS011;23767;42.024;23.086;2023-02-28T09:18:51;18.92;;;11.57;;
37943;SDS011;23767;42.024;23.086;2023-02-28T09:21:17;23.02;;;13.00;;
37943;SDS011;23767;42.024;23.086;2023-02-28T09:23:44;24.55;;;12.07;;
37943;SDS011;23767;42.024;23.086;2023-02-28T09:26:14;19.33;;;12.02;;
37943;SDS011;23767;42.024;23.086;2023-02-28T09:28:40;19.92;;;10.10;;
37943;SDS011;23767;42.024;23.086;2023-02-28T09:31:10;20.02;;;9.90;;
37943;SDS011;23767;42.024;23.086;2023-02-28T09:33:37;16.70;;;9.38;;
37943;SDS011;23767;42.024;23.086;2023-02-28T09:36:03;20.38;;;9.07;;
37943;SDS011;23767;42.024;23.086;2023-02-28T09:38:29;19.05;;;10.18;;
37943;SDS011;23767;42.024;23.086;2023-02-28T09:41:00;18.27;;;9.48;;
37943;SDS011;23767;42.024;23.086;2023-02-28T09:43:28;18.80;;;9.52;;
37943;SDS011;23767;42.024;23.086;2023-02-28T09:45:56;19.63;;;9.60;;
37943;SDS011;23767;42.024;23.086;2023-02-28T09:48:28;18.48;;;9.45;;
37943;SDS011;23767;42.024;23.086;2023-02-28T09:50:59;18.75;;;9.90;;
37943;SDS011;23767;42.024;23.086;2023-02-28T09:53:27;15.18;;;8.90;;
37943;SDS011;23767;42.024;23.086;2023-02-28T10:00:54;17.75;;;9.45;;
37943;SDS011;23767;42.024;23.086;2023-02-28T10:08:25;15.23;;;9.25;;
37943;SDS011;23767;42.024;23.086;2023-02-28T10:10:55;23.60;;;11.52;;
37943;SDS011;23767;42.024;23.086;2023-02-28T10:13:23;18.55;;;9.73;;
37943;SDS011;23767;42.024;23.086;2023-02-28T10:16:13;21.02;;;9.02;;
37943;SDS011;23767;42.024;23.086;2023-02-28T10:18:44;18.42;;;8.00;;
37943;SDS011;23767;42.024;23.086;2023-02-28T10:21:56;16.52;;;8.50;;
37943;SDS011;23767;42.024;23.086;2023-02-28T10:26:45;14.90;;;7.57;;
37943;SDS011;23767;42.024;23.086;2023-02-28T10:29:13;17.50;;;8.52;;
37943;SDS011;23767;42.024;23.086;2023-02-28T10:31:39;14.95;;;7.68;;
37943;SDS011;23767;42.024;23.086;2023-02-28T10:34:05;16.48;;;7.80;;
37943;SDS011;23767;42.024;23.086;2023-02-28T10:36:31;14.40;;;8.32;;
37943;SDS011;23767;42.024;23.086;2023-02-28T10:38:58;22.13;;;8.70;;
37943;SDS011;23767;42.024;23.086;2023-02-28T10:41:31;15.07;;;7.68;;
37943;SDS011;23767;42.024;23.086;2023-02-28T10:46:40;18.85;;;8.90;;
37943;SDS011;23767;42.024;23.086;2023-02-28T10:49:11;18.17;;;8.65;;
37943;SDS011;23767;42.024;23.086;2023-02-28T10:51:39;18.50;;;9.10;;
37943;SDS011;23767;42.024;23.086;2023-02-28T10:54:05;17.02;;;8.98;;
37943;SDS011;23767;42.024;23.086;2023-02-28T10:56:40;18.10;;;10.02;;
37943;SDS011;23767;42.024;23.086;2023-02-28T11:02:02;19.67;;;10.55;;
37943;SDS011;23767;42.024;23.086;2023-02-28T11:09:39;23.50;;;10.57;;
37943;SDS011;23767;42.024;23.086;2023-02-28T11:12:08;15.15;;;10.57;;
37943;SDS011;23767;42.024;23.086;2023-02-28T11:14:49;27.75;;;10.48;;
37943;SDS011;23767;42.024;23.086;2023-02-28T11:17:20;20.60;;;10.45;;
37943;SDS011;23767;42.024;23.086;2023-02-28T11:19:48;23.08;;;10.35;;
37943;SDS011;23767;42.024;23.086;2023-02-28T11:22:19;21.90;;;9.85;;
37943;SDS011;23767;42.024;23.086;2023-02-28T11:24:47;18.70;;;9.80;;
37943;SDS011;23767;42.024;23.086;2023-02-28T11:29:55;20.60;;;9.88;;
37943;SDS011;23767;42.024;23.086;2023-02-28T11:32:22;19.58;;;9.80;;
37943;SDS011;23767;42.024;23.086;2023-02-28T11:35:34;22.63;;;9.95;;
37943;SDS011;23767;42.024;23.086;2023-02-28T11:37:35;19.08;;;9.32;;
37943;SDS011;23767;42.024;23.086;2023-02-28T11:40:02;18.52;;;9.35;;
37943;SDS011;23767;42.024;23.086;2023-02-28T11:47:48;15.40;;;9.82;;
37943;SDS011;23767;42.024;23.086;2023-02-28T11:50:38;18.60;;;9.68;;
37943;SDS011;23767;42.024;23.086;2023-02-28T11:53:10;20.42;;;10.05;;
37943;SDS011;23767;42.024;23.086;2023-02-28T11:55:44;16.92;;;9.73;;
37943;SDS011;23767;42.024;23.086;2023-02-28T11:58:14;18.13;;;9.45;;
37943;SDS011;23767;42.024;23.086;2023-02-28T12:08:15;21.30;;;9.40;;
37943;SDS011;23767;42.024;23.086;2023-02-28T12:16:12;20.33;;;10.43;;
37943;SDS011;23767;42.024;23.086;2023-02-28T12:21:11;19.15;;;10.65;;
37943;SDS011;23767;42.024;23.086;2023-02-28T12:28:43;22.27;;;10.02;;
37943;SDS011;23767;42.024;23.086;2023-02-28T12:31:14;20.30;;;9.85;;
37943;SDS011;23767;42.024;23.086;2023-02-28T12:33:46;23.05;;;11.55;;
37943;SDS011;23767;42.024;23.086;2023-02-28T12:36:14;22.98;;;10.73;;
37943;SDS011;23767;42.024;23.086;2023-02-28T12:39:27;21.23;;;10.18;;
37943;SDS011;23767;42.024;23.086;2023-02-28T12:41:44;27.05;;;11.00;;
37943;SDS011;23767;42.024;23.086;2023-02-28T12:44:12;21.55;;;10.13;;
37943;SDS011;23767;42.024;23.086;2023-02-28T12:46:41;20.02;;;10.63;;
37943;SDS011;23767;42.024;23.086;2023-02-28T12:49:10;21.08;;;9.88;;
37943;SDS011;23767;42.024;23.086;2023-02-28T12:51:38;25.30;;;9.82;;
37943;SDS011;23767;42.024;23.086;2023-02-28T12:56:53;22.60;;;10.45;;
37943;SDS011;23767;42.024;23.086;2023-02-28T13:10:44;23.25;;;12.30;;
37943;SDS011;23767;42.024;23.086;2023-02-28T13:13:14;20.70;;;10.90;;
37943;SDS011;23767;42.024;23.086;2023-02-28T13:15:41;26.33;;;11.77;;
37943;SDS011;23767;42.024;23.086;2023-02-28T13:18:32;28.25;;;11.85;;
37943;SDS011;23767;42.024;23.086;2023-02-28T13:21:01;18.17;;;10.82;;
37943;SDS011;23767;42.024;23.086;2023-02-28T13:26:02;21.55;;;12.07;;
37943;SDS011;23767;42.024;23.086;2023-02-28T13:31:20;21.13;;;10.90;;
37943;SDS011;23767;42.024;23.086;2023-02-28T13:46:25;22.98;;;12.95;;
37943;SDS011;23767;42.024;23.086;2023-02-28T13:48:52;21.35;;;12.40;;
37943;SDS011;23767;42.024;23.086;2023-02-28T13:54:11;24.90;;;12.35;;
37943;SDS011;23767;42.024;23.086;2023-02-28T13:56:45;28.05;;;13.75;;
37943;SDS011;23767;42.024;23.086;2023-02-28T13:59:23;24.40;;;14.40;;
37943;SDS011;23767;42.024;23.086;2023-02-28T14:21:52;26.98;;;14.52;;
37943;SDS011;23767;42.024;23.086;2023-02-28T14:24:48;31.40;;;14.88;;
37943;SDS011;23767;42.024;23.086;2023-02-28T14:34:54;27.20;;;14.02;;
37943;SDS011;23767;42.024;23.086;2023-02-28T14:37:27;25.95;;;13.30;;
37943;SDS011;23767;42.024;23.086;2023-02-28T14:42:30;27.83;;;13.00;;
37943;SDS011;23767;42.024;23.086;2023-02-28T14:44:56;28.77;;;13.23;;
37943;SDS011;23767;42.024;23.086;2023-02-28T14:47:23;36.08;;;13.57;;
37943;SDS011;23767;42.024;23.086;2023-02-28T14:49:50;29.27;;;14.40;;
37943;SDS011;23767;42.024;23.086;2023-02-28T14:52:19;33.45;;;14.70;;
37943;SDS011;23767;42.024;23.086;2023-02-28T14:54:46;31.88;;;14.48;;
37943;SDS011;23767;42.024;23.086;2023-02-28T14:57:21;25.10;;;14.55;;
37943;SDS011;23767;42.024;23.086;2023-02-28T14:59:56;32.72;;;14.48;;
37943;SDS011;23767;42.024;23.086;2023-02-28T15:02:23;30.50;;;14.90;;
37943;SDS011;23767;42.024;23.086;2023-02-28T15:05:00;30.30;;;14.43;;
37943;SDS011;23767;42.024;23.086;2023-02-28T15:07:27;26.75;;;16.48;;
37943;SDS011;23767;42.024;23.086;2023-02-28T15:12:39;34.28;;;15.23;;
37943;SDS011;23767;42.024;23.086;2023-02-28T15:15:13;34.00;;;15.48;;
37943;SDS011;23767;42.024;23.086;2023-02-28T15:17:39;30.48;;;14.85;;
37943;SDS011;23767;42.024;23.086;2023-02-28T15:20:10;26.52;;;13.35;;
37943;SDS011;23767;42.024;23.086;2023-02-28T15:22:37;31.00;;;13.23;;
37943;SDS011;23767;42.024;23.086;2023-02-28T15:25:03;30.67;;;11.80;;
37943;SDS011;23767;42.024;23.086;2023-02-28T15:27:31;26.45;;;11.70;;
37943;SDS011;23767;42.024;23.086;2023-02-28T15:30:05;24.60;;;10.30;;
37943;SDS011;23767;42.024;23.086;2023-02-28T15:32:33;25.67;;;12.60;;
37943;SDS011;23767;42.024;23.086;2023-02-28T15:35:17;27.27;;;11.18;;
37943;SDS011;23767;42.024;23.086;2023-02-28T15:37:47;34.35;;;11.63;;
37943;SDS011;23767;42.024;23.086;2023-02-28T15:40:15;28.80;;;11.07;;
37943;SDS011;23767;42.024;23.086;2023-02-28T15:42:41;25.88;;;10.70;;
37943;SDS011;23767;42.024;23.086;2023-02-28T15:45:26;27.38;;;12.00;;
37943;SDS011;23767;42.024;23.086;2023-02-28T15:47:53;24.17;;;12.10;;
37943;SDS011;23767;42.024;23.086;2023-02-28T15:50:19;23.17;;;12.18;;
37943;SDS011;23767;42.024;23.086;2023-02-28T15:52:45;31.67;;;13.50;;
37943;SDS011;23767;42.024;23.086;2023-02-28T15:55:21;28.60;;;12.27;;
37943;SDS011;23767;42.024;23.086;2023-02-28T15:57:49;32.45;;;12.75;;
37943;SDS011;23767;42.024;23.086;2023-02-28T16:00:18;29.27;;;12.75;;
37943;SDS011;23767;42.024;23.086;2023-02-28T16:02:45;28.15;;;12.23;;
37943;SDS011;23767;42.024;23.086;2023-02-28T16:07:38;30.95;;;13.18;;
37943;SDS011;23767;42.024;23.086;2023-02-28T16:10:05;29.20;;;13.85;;
37943;SDS011;23767;42.024;23.086;2023-02-28T16:12:32;34.22;;;13.50;;
37943;SDS011;23767;42.024;23.086;2023-02-28T16:15:00;26.90;;;13.77;;
37943;SDS011;23767;42.024;23.086;2023-02-28T16:17:28;28.15;;;14.60;;
37943;SDS011;23767;42.024;23.086;2023-02-28T16:19:55;27.27;;;13.88;;
37943;SDS011;23767;42.024;23.086;2023-02-28T16:22:21;28.92;;;15.10;;
37943;SDS011;23767;42.024;23.086;2023-02-28T16:24:47;34.83;;;15.50;;
37943;SDS011;23767;42.024;23.086;2023-02-28T16:29:46;27.23;;;14.20;;
37943;SDS011;23767;42.024;23.086;2023-02-28T16:32:14;28.92;;;14.25;;
37943;SDS011;23767;42.024;23.086;2023-02-28T16:34:40;27.08;;;14.30;;
37943;SDS011;23767;42.024;23.086;2023-02-28T16:37:14;31.77;;;14.10;;
37943;SDS011;23767;42.024;23.086;2023-02-28T16:39:41;32.25;;;14.98;;
37943;SDS011;23767;42.024;23.086;2023-02-28T16:42:09;27.67;;;15.95;;
37943;SDS011;23767;42.024;23.086;2023-02-28T16:44:36;26.88;;;14.18;;
37943;SDS011;23767;42.024;23.086;2023-02-28T16:47:03;28.10;;;15.90;;
37943;SDS011;23767;42.024;23.086;2023-02-28T16:49:29;26.55;;;15.43;;
37943;SDS011;23767;42.024;23.086;2023-02-28T16:51:55;32.88;;;16.13;;
37943;SDS011;23767;42.024;23.086;2023-02-28T16:54:21;29.02;;;16.05;;
37943;SDS011;23767;42.024;23.086;2023-02-28T16:56:48;35.42;;;17.63;;
37943;SDS011;23767;42.024;23.086;2023-02-28T16:59:14;37.25;;;21.27;;
37943;SDS011;23767;42.024;23.086;2023-02-28T17:01:43;43.25;;;26.02;;
37943;SDS011;23767;42.024;23.086;2023-02-28T17:04:10;43.50;;;24.58;;
37943;SDS011;23767;42.024;23.086;2023-02-28T17:06:37;33.08;;;19.30;;
37943;SDS011;23767;42.024;23.086;2023-02-28T17:09:03;33.08;;;17.80;;
37943;SDS011;23767;42.024;23.086;2023-02-28T17:11:29;34.35;;;15.95;;
37943;SDS011;23767;42.024;23.086;2023-02-28T17:13:55;71.63;;;40.55;;
37943;SDS011;23767;42.024;23.086;2023-02-28T17:18:54;52.42;;;31.17;;
37943;SDS011;23767;42.024;23.086;2023-02-28T17:21:20;49.35;;;24.65;;
37943;SDS011;23767;42.024;23.086;2023-02-28T17:23:46;38.13;;;16.17;;
37943;SDS011;23767;42.024;23.086;2023-02-28T17:26:13;44.53;;;25.75;;
37943;SDS011;23767;42.024;23.086;2023-02-28T17:28:39;52.67;;;27.45;;
37943;SDS011;23767;42.024;23.086;2023-02-28T17:31:05;70.50;;;40.30;;
37943;SDS011;23767;42.024;23.086;2023-02-28T17:33:31;37.10;;;22.02;;
37943;SDS011;23767;42.024;23.086;2023-02-28T17:35:57;94.10;;;57.05;;
37943;SDS011;23767;42.024;23.086;2023-02-28T17:38:23;77.13;;;45.33;;